Time;durP1;ratioP1;P1;durP2;ratioP2;P2;SDS_P1;SDS_P2;PMS_P1;PMS_P2;Temp;Humidity;BMP_temperature;BMP_pressure;BME280_temperature;BME280_humidity;BME280_pressure;Samples;Min_cycle;Max_cycle;Signal;HPM_P1;HPM_P2
2023/10/19 00:00:40;;;;;;;0.40;0.40;;;;;;;11.78;100.00;97391.56;5017613;28;20038;-76
2023/10/19 00:03:06;;;;;;;0.40;0.40;;;;;;;11.74;100.00;97388.56;5033097;28;20064;-76
2023/10/19 00:05:36;;;;;;;0.50;0.50;;;;;;;11.71;100.00;97380.22;5011198;28;20040;-75
2023/10/19 00:10:38;;;;;;;0.40;0.40;;;;;;;11.68;100.00;97376.19;5029230;28;20421;-77
2023/10/19 00:13:05;;;;;;;0.50;0.50;;;;;;;11.70;100.00;97375.94;5015649;28;20041;-76
2023/10/19 00:15:34;;;;;;;0.40;0.40;;;;;;;11.69;100.00;97372.41;5028214;28;20029;-76
2023/10/19 00:18:21;;;;;;;0.40;0.40;;;;;;;11.69;100.00;97364.34;5009625;28;20030;-75
2023/10/19 00:20:51;;;;;;;0.30;0.30;;;;;;;11.71;100.00;97362.19;5032602;28;20033;-75
2023/10/19 00:23:28;;;;;;;0.40;0.40;;;;;;;11.70;100.00;97360.59;5064821;28;20044;-76
2023/10/19 00:25:58;;;;;;;0.40;0.40;;;;;;;11.65;100.00;97347.94;5047452;28;20482;-76
2023/10/19 00:28:26;;;;;;;0.40;0.40;;;;;;;11.64;100.00;97353.56;5000324;28;20104;-76
2023/10/19 00:30:53;;;;;;;0.40;0.40;;;;;;;11.60;100.00;97347.09;5032803;28;20029;-76
2023/10/19 00:33:28;;;;;;;0.40;0.40;;;;;;;11.55;100.00;97334.44;5032950;28;20061;-77
2023/10/19 00:35:58;;;;;;;0.30;0.30;;;;;;;11.50;100.00;97337.13;5017049;28;20040;-76
2023/10/19 00:38:30;;;;;;;0.40;0.40;;;;;;;11.55;100.00;97336.34;5000857;28;20403;-76
2023/10/19 00:41:12;;;;;;;0.30;0.30;;;;;;;11.54;100.00;97332.03;5000815;28;20041;-75
2023/10/19 00:43:45;;;;;;;0.40;0.40;;;;;;;11.54;100.00;97337.41;5002162;28;20557;-75
2023/10/19 00:48:45;;;;;;;;;;;;;;;11.56;100.00;97327.97;5033350;28;20029;-75
2023/10/19 00:54:03;;;;;;;0.40;0.40;;;;;;;11.58;100.00;97327.72;5018257;28;20037;-77
2023/10/19 00:56:32;;;;;;;0.50;0.50;;;;;;;11.59;100.00;97332.03;5000682;28;20037;-75
2023/10/19 00:59:14;;;;;;;0.38;0.38;;;;;;;11.60;100.00;97331.78;5016551;28;20042;-76
2023/10/19 01:01:48;;;;;;;0.30;0.30;;;;;;;11.60;100.00;97320.19;5018802;28;20022;-76
2023/10/19 01:04:34;;;;;;;0.40;0.40;;;;;;;11.62;100.00;97324.25;5032271;28;20026;-76
2023/10/19 01:07:15;;;;;;;0.40;0.40;;;;;;;11.59;100.00;97327.47;5002190;28;20029;-75
2023/10/19 01:09:43;;;;;;;0.38;0.38;;;;;;;11.54;100.00;97307.81;5031866;28;20036;-76
2023/10/19 01:12:25;;;;;;;0.40;0.40;;;;;;;11.42;100.00;97306.16;5000145;28;20534;-76
2023/10/19 01:17:57;;;;;;;0.70;0.70;;;;;;;11.09;100.00;97296.69;5032515;28;20096;-76
2023/10/19 01:25:59;;;;;;;0.30;0.30;;;;;;;10.85;100.00;97284.72;5014659;28;20416;-76
2023/10/19 01:28:28;;;;;;;0.40;0.40;;;;;;;10.87;100.00;97285.28;5013920;28;20025;-76
2023/10/19 01:30:54;;;;;;;0.40;0.40;;;;;;;10.81;100.00;97281.78;5002761;28;20067;-75
2023/10/19 01:33:21;;;;;;;0.50;0.50;;;;;;;10.70;100.00;97286.28;5019774;28;20393;-76
2023/10/19 01:36:42;;;;;;;0.40;0.40;;;;;;;10.63;100.00;97285.72;5003145;28;20420;-75
2023/10/19 01:38:34;;;;;;;0.30;0.30;;;;;;;10.56;100.00;97279.78;5021198;28;20052;-75
2023/10/19 01:41:13;;;;;;;0.40;0.40;;;;;;;10.48;100.00;97267.66;5052562;28;20026;-76
2023/10/19 01:43:54;;;;;;;0.40;0.40;;;;;;;10.42;100.00;97268.69;5034990;28;20029;-75
2023/10/19 01:46:22;;;;;;;0.30;0.30;;;;;;;10.47;100.00;97271.41;5033012;28;20086;-76
2023/10/19 01:48:50;;;;;;;0.40;0.40;;;;;;;10.47;100.00;97273.28;5019436;28;20480;-75
2023/10/19 01:51:16;;;;;;;0.40;0.40;;;;;;;10.63;100.00;97276.84;5003396;28;20030;-76
2023/10/19 01:53:44;;;;;;;0.30;0.30;;;;;;;10.71;100.00;97270.97;5035405;28;20464;-75
2023/10/19 01:56:12;;;;;;;0.40;0.40;;;;;;;10.66;100.00;97255.63;5019576;28;20038;-76
2023/10/19 01:58:51;;;;;;;0.50;0.50;;;;;;;10.77;100.00;97261.88;5020898;28;20067;-75
2023/10/19 02:01:28;;;;;;;0.40;0.40;;;;;;;10.80;100.00;97253.28;5019585;28;20675;-76
2023/10/19 02:04:05;;;;;;;0.40;0.40;;;;;;;10.81;100.00;97254.91;5005793;28;20041;-75
2023/10/19 02:09:18;;;;;;;0.40;0.40;;;;;;;10.82;100.00;97242.25;5035578;28;20044;-76
2023/10/19 02:11:57;;;;;;;0.40;0.40;;;;;;;10.86;100.00;97241.47;5019084;28;20037;-75
2023/10/19 02:14:31;;;;;;;0.40;0.40;;;;;;;10.87;100.00;97235.03;5035479;28;20048;-75
2023/10/19 02:16:59;;;;;;;0.40;0.40;;;;;;;10.90;100.00;97229.16;5035550;28;20030;-76
2023/10/19 02:19:26;;;;;;;0.40;0.40;;;;;;;10.89;100.00;97235.56;4999369;28;20076;-75
2023/10/19 02:21:53;;;;;;;0.32;0.32;;;;;;;10.91;100.00;97227.25;5016459;28;20090;-76
2023/10/19 02:24:22;;;;;;;0.30;0.30;;;;;;;10.90;100.00;97226.47;5001393;28;20038;-76
2023/10/19 02:26:54;;;;;;;0.40;0.40;;;;;;;10.84;100.00;97210.56;5016417;28;20069;-75
2023/10/19 02:29:21;;;;;;;0.30;0.30;;;;;;;10.78;100.00;97215.13;5002405;28;20136;-75
2023/10/19 02:31:48;;;;;;;0.40;0.40;;;;;;;10.66;100.00;97209.16;5017026;28;20037;-76
2023/10/19 02:34:16;;;;;;;0.40;0.40;;;;;;;10.56;100.00;97208.06;5013328;28;20392;-76
2023/10/19 02:36:45;;;;;;;0.40;0.40;;;;;;;10.49;100.00;97199.44;5032148;28;20060;-75
2023/10/19 02:39:14;;;;;;;0.40;0.40;;;;;;;10.48;100.00;97197.81;5033185;28;20034;-75
2023/10/19 02:41:44;;;;;;;0.40;0.40;;;;;;;10.51;100.00;97196.50;5022878;28;20037;-76
2023/10/19 02:46:44;;;;;;;;;;;;;;;10.55;100.00;97187.63;5035198;28;20033;-76
2023/10/19 02:49:11;;;;;;;0.40;0.40;;;;;;;10.56;100.00;97177.72;5016301;28;19975;-75
2023/10/19 02:51:38;;;;;;;0.32;0.32;;;;;;;10.63;100.00;97172.88;5016710;28;20092;-76
2023/10/19 02:54:06;;;;;;;0.32;0.32;;;;;;;10.69;100.00;97165.63;4980877;28;20029;-75
2023/10/19 02:56:31;;;;;;;0.40;0.40;;;;;;;10.72;100.00;97157.06;4987394;28;20080;-76
2023/10/19 02:59:06;;;;;;;0.38;0.38;;;;;;;10.75;100.00;97159.22;5006642;28;20054;-76
2023/10/19 03:01:34;;;;;;;0.40;0.40;;;;;;;10.78;100.00;97156.81;5006705;28;20037;-76
2023/10/19 03:04:01;;;;;;;0.40;0.40;;;;;;;10.79;100.00;97149.53;5015490;28;20041;-76
2023/10/19 03:06:32;;;;;;;0.40;0.40;;;;;;;10.83;100.00;97145.28;5000918;28;20041;-75
2023/10/19 03:09:00;;;;;;;0.30;0.30;;;;;;;10.87;100.00;97140.16;5016761;28;20108;-76
2023/10/19 03:11:29;;;;;;;0.40;0.40;;;;;;;10.90;100.00;97129.69;5032730;28;20055;-76
2023/10/19 03:13:56;;;;;;;0.40;0.40;;;;;;;10.93;100.00;97123.00;5031654;28;20054;-75
2023/10/19 03:16:23;;;;;;;0.40;0.40;;;;;;;10.97;100.00;97124.06;5017881;28;20464;-75
2023/10/19 03:18:52;;;;;;;0.40;0.40;;;;;;;11.00;100.00;97115.44;5030409;28;20033;-75
2023/10/19 03:21:26;;;;;;;0.40;0.40;;;;;;;11.03;100.00;97114.91;5017758;28;20480;-76
2023/10/19 03:23:53;;;;;;;0.30;0.30;;;;;;;11.06;100.00;97111.72;5017347;28;20120;-76
2023/10/19 03:26:36;;;;;;;0.40;0.40;;;;;;;11.09;100.00;97113.06;5015549;28;20041;-78
2023/10/19 03:29:08;;;;;;;0.40;0.40;;;;;;;11.10;100.00;97096.63;5017175;28;20419;-76
2023/10/19 03:31:43;;;;;;;0.40;0.40;;;;;;;11.12;100.00;97093.69;5034169;28;20114;-75
2023/10/19 03:34:18;;;;;;;0.40;0.40;;;;;;;11.13;100.00;97095.28;5018590;28;20281;-76
2023/10/19 03:36:44;;;;;;;0.40;0.40;;;;;;;11.11;100.00;97092.06;5018291;28;20037;-75
2023/10/19 03:39:14;;;;;;;0.40;0.40;;;;;;;11.14;100.00;97086.13;5034857;28;20035;-75
2023/10/19 03:41:44;;;;;;;0.40;0.40;;;;;;;11.14;100.00;97086.97;5049806;28;20060;-76
2023/10/19 03:44:26;;;;;;;0.40;0.40;;;;;;;11.12;100.00;97089.13;5045852;28;20033;-75
2023/10/19 03:46:57;;;;;;;0.35;0.35;;;;;;;11.10;100.00;97079.72;5035713;28;20045;-75
2023/10/19 03:49:30;;;;;;;0.30;0.30;;;;;;;11.09;100.00;97083.47;5001677;28;20430;-76
2023/10/19 03:51:58;;;;;;;0.37;0.37;;;;;;;11.04;100.00;97076.22;5017800;28;20384;-76
2023/10/19 03:54:26;;;;;;;0.40;0.40;;;;;;;11.03;100.00;97079.97;5034371;28;20262;-76
2023/10/19 03:56:53;;;;;;;0.40;0.40;;;;;;;11.05;100.00;97060.88;5016852;28;20518;-76
2023/10/19 03:59:20;;;;;;;0.40;0.40;;;;;;;11.07;100.00;97061.44;5017039;28;20494;-76
2023/10/19 04:01:45;;;;;;;0.40;0.40;;;;;;;11.04;100.00;97056.59;5034097;28;20029;-77
2023/10/19 04:04:11;;;;;;;0.40;0.40;;;;;;;11.06;100.00;97049.88;5009611;28;20036;-76
2023/10/19 04:06:39;;;;;;;0.40;0.40;;;;;;;11.03;100.00;97046.91;5032074;28;20041;-76
2023/10/19 04:09:06;;;;;;;0.40;0.40;;;;;;;10.95;100.00;97040.19;5029953;28;20037;-77
2023/10/19 04:11:52;;;;;;;0.43;0.43;;;;;;;11.07;100.00;97048.78;5031867;28;20419;-76
2023/10/19 04:14:20;;;;;;;0.40;0.40;;;;;;;11.07;100.00;97043.41;5004559;28;20033;-75
2023/10/19 04:16:48;;;;;;;0.40;0.40;;;;;;;11.09;100.00;97037.78;5016849;28;20044;-76
2023/10/19 04:19:15;;;;;;;0.30;0.30;;;;;;;11.12;100.00;97039.91;5016844;28;20475;-76
2023/10/19 04:21:46;;;;;;;0.40;0.40;;;;;;;11.11;100.00;97027.53;5000430;28;20138;-75
2023/10/19 04:24:12;;;;;;;0.40;0.40;;;;;;;11.10;100.00;97025.94;5000833;28;20040;-75
2023/10/19 04:26:38;;;;;;;0.40;0.40;;;;;;;11.09;100.00;97016.28;5032531;28;20475;-77
2023/10/19 04:29:11;;;;;;;0.40;0.40;;;;;;;11.09;100.00;97008.19;5032871;28;20087;-75
2023/10/19 04:31:40;;;;;;;0.30;0.30;;;;;;;11.06;100.00;97011.41;5032634;28;20037;-76
2023/10/19 04:34:09;;;;;;;0.40;0.40;;;;;;;11.05;100.00;97010.59;5032346;28;20136;-75
2023/10/19 04:36:35;;;;;;;0.40;0.40;;;;;;;11.05;100.00;97004.44;5032814;28;20039;-76
2023/10/19 04:39:02;;;;;;;0.40;0.40;;;;;;;11.05;100.00;96996.38;5016411;28;20045;-77
2023/10/19 04:41:28;;;;;;;0.40;0.40;;;;;;;11.03;100.00;97003.88;5032418;28;20033;-75
2023/10/19 04:43:54;;;;;;;0.30;0.30;;;;;;;10.94;100.00;96990.19;5032835;28;20100;-75
2023/10/19 04:46:20;;;;;;;0.40;0.40;;;;;;;10.90;100.00;96989.94;5016165;28;20034;-76
2023/10/19 04:48:46;;;;;;;0.35;0.35;;;;;;;10.86;100.00;96996.13;5016274;28;20036;-76
2023/10/19 04:51:11;;;;;;;0.40;0.40;;;;;;;10.79;100.00;96993.69;5033521;28;20022;-76
2023/10/19 04:53:37;;;;;;;0.40;0.40;;;;;;;10.76;100.00;96986.97;5033800;28;20132;-76
2023/10/19 04:56:08;;;;;;;0.45;0.45;;;;;;;10.76;100.00;96975.41;5032639;28;20121;-76
2023/10/19 04:58:36;;;;;;;0.40;0.40;;;;;;;10.74;100.00;96978.41;5016555;28;20037;-75
2023/10/19 05:01:03;;;;;;;0.45;0.45;;;;;;;10.67;100.00;96979.75;4999684;28;20029;-76
2023/10/19 05:03:29;;;;;;;0.40;0.40;;;;;;;10.66;100.00;96980.78;5031323;28;20036;-75
2023/10/19 05:05:56;;;;;;;0.40;0.40;;;;;;;10.65;100.00;96977.31;4998845;28;20033;-75
2023/10/19 05:08:25;;;;;;;0.32;0.32;;;;;;;10.67;100.00;96966.31;5025347;28;20041;-76
2023/10/19 05:10:55;;;;;;;0.38;0.38;;;;;;;10.71;100.00;96976.22;5016375;28;20026;-75
2023/10/19 05:13:23;;;;;;;0.40;0.40;;;;;;;10.77;100.00;96964.41;5001076;28;20060;-75
2023/10/19 05:15:48;;;;;;;0.40;0.40;;;;;;;10.81;100.00;96969.25;5000560;28;20045;-75
2023/10/19 05:18:14;;;;;;;0.40;0.40;;;;;;;10.85;100.00;96965.75;5000382;28;20037;-76
2023/10/19 05:20:40;;;;;;;0.40;0.40;;;;;;;10.89;100.00;96966.81;4984136;28;20388;-75
2023/10/19 05:23:08;;;;;;;0.30;0.30;;;;;;;10.94;100.00;96950.69;5000080;28;20042;-76
2023/10/19 05:25:36;;;;;;;0.50;0.50;;;;;;;10.96;100.00;96959.28;4992170;28;20468;-76
2023/10/19 05:28:03;;;;;;;0.40;0.40;;;;;;;10.99;100.00;96957.94;5036056;28;20461;-76
2023/10/19 05:30:29;;;;;;;0.40;0.40;;;;;;;10.96;100.00;96959.28;5003718;28;20061;-75
2023/10/19 05:32:55;;;;;;;0.40;0.40;;;;;;;11.03;100.00;96956.31;5019858;28;20060;-75
2023/10/19 05:35:23;;;;;;;0.43;0.43;;;;;;;11.05;100.00;96956.03;5019626;28;20123;-76
2023/10/19 05:37:49;;;;;;;0.43;0.43;;;;;;;11.06;100.00;96950.41;5003333;28;20120;-75
2023/10/19 05:40:15;;;;;;;0.40;0.40;;;;;;;11.05;100.00;96937.22;5035745;28;20033;-76
2023/10/19 05:42:41;;;;;;;0.40;0.40;;;;;;;11.09;100.00;96939.09;5019465;28;20541;-76
2023/10/19 05:45:07;;;;;;;0.40;0.40;;;;;;;11.12;100.00;96937.75;5035933;28;20033;-76
2023/10/19 05:47:33;;;;;;;0.40;0.40;;;;;;;11.14;100.00;96938.28;5002544;28;20151;-75
2023/10/19 05:49:59;;;;;;;0.50;0.50;;;;;;;11.12;100.00;96930.50;5033947;28;20121;-76
2023/10/19 05:52:24;;;;;;;0.40;0.40;;;;;;;11.16;100.00;96928.06;5035591;28;20029;-76
2023/10/19 05:54:50;;;;;;;0.40;0.40;;;;;;;11.17;100.00;96925.09;5019006;28;20026;-76
2023/10/19 05:57:16;;;;;;;0.40;0.40;;;;;;;11.17;100.00;96932.38;5019916;28;20021;-76
2023/10/19 05:59:41;;;;;;;0.40;0.40;;;;;;;11.19;100.00;96927.50;5051761;28;20052;-75
2023/10/19 06:02:07;;;;;;;0.40;0.40;;;;;;;11.12;100.00;96916.25;5019128;28;20060;-75
2023/10/19 06:04:33;;;;;;;0.30;0.30;;;;;;;11.19;100.00;96919.44;5035501;28;20468;-75
2023/10/19 06:06:59;;;;;;;0.50;0.50;;;;;;;11.21;100.00;96919.97;5035320;28;20033;-75
2023/10/19 06:09:29;;;;;;;0.30;0.30;;;;;;;11.22;100.00;96924.28;5002854;28;20491;-75
2023/10/19 06:11:58;;;;;;;0.40;0.40;;;;;;;11.23;100.00;96915.13;5035363;28;20468;-75
2023/10/19 06:14:23;;;;;;;0.40;0.40;;;;;;;11.21;100.00;96912.72;5036479;28;20040;-76
2023/10/19 06:16:49;;;;;;;0.40;0.40;;;;;;;11.22;100.00;96913.53;5034722;28;20022;-75
2023/10/19 06:19:16;;;;;;;0.50;0.50;;;;;;;11.25;100.00;96912.97;5002781;28;20123;-75
2023/10/19 06:21:42;;;;;;;0.43;0.43;;;;;;;11.24;100.00;96914.03;5034864;28;20464;-76
2023/10/19 06:24:07;;;;;;;0.50;0.50;;;;;;;11.27;100.00;96921.56;5018358;28;20033;-76
2023/10/19 06:26:33;;;;;;;0.40;0.40;;;;;;;11.29;100.00;96918.59;4999472;28;20091;-75
2023/10/19 06:28:59;;;;;;;0.30;0.30;;;;;;;11.26;100.00;96914.59;5017754;28;20044;-76
2023/10/19 06:31:25;;;;;;;0.30;0.30;;;;;;;11.29;100.00;96913.22;5033587;28;20037;-76
2023/10/19 06:33:52;;;;;;;0.40;0.40;;;;;;;11.28;100.00;96911.63;5026098;28;20472;-75
2023/10/19 06:36:18;;;;;;;0.40;0.40;;;;;;;11.29;100.00;96910.53;5015369;28;20045;-76
2023/10/19 06:38:44;;;;;;;0.30;0.30;;;;;;;11.33;100.00;96904.34;5045130;28;20514;-76
2023/10/19 06:41:11;;;;;;;0.38;0.38;;;;;;;11.33;100.00;96906.25;4997929;28;20108;-75
2023/10/19 06:43:38;;;;;;;0.40;0.40;;;;;;;11.33;100.00;96915.09;4986001;28;20045;-76
2023/10/19 06:46:04;;;;;;;0.40;0.40;;;;;;;11.34;100.00;96922.06;5016368;28;20564;-76
2023/10/19 06:48:30;;;;;;;0.40;0.40;;;;;;;11.33;100.00;96917.78;5026577;28;20124;-76
2023/10/19 06:50:56;;;;;;;0.40;0.40;;;;;;;11.34;100.00;96914.00;5016457;28;20033;-76
2023/10/19 06:53:22;;;;;;;0.40;0.40;;;;;;;11.34;100.00;96921.28;5032279;28;20033;-75
2023/10/19 06:55:47;;;;;;;0.40;0.40;;;;;;;11.35;100.00;96921.00;5033094;28;20048;-76
2023/10/19 06:58:19;;;;;;;0.40;0.40;;;;;;;11.33;100.00;96917.78;5017281;28;20043;-76
2023/10/19 07:00:45;;;;;;;0.40;0.40;;;;;;;11.33;100.00;96917.78;5018518;28;20037;-76
2023/10/19 07:03:11;;;;;;;0.30;0.30;;;;;;;11.34;100.00;96922.06;5030563;28;21878;-75
2023/10/19 07:05:36;;;;;;;0.40;0.40;;;;;;;11.32;100.00;96916.16;5026009;28;20044;-75
2023/10/19 07:08:06;;;;;;;0.40;0.40;;;;;;;11.32;100.00;96912.69;4992090;28;20029;-76
2023/10/19 07:10:34;;;;;;;0.35;0.35;;;;;;;11.31;100.00;96908.38;5014322;28;20029;-76
2023/10/19 07:13:00;;;;;;;0.40;0.40;;;;;;;11.30;100.00;96917.50;5029130;28;20033;-75
2023/10/19 07:15:26;;;;;;;0.40;0.40;;;;;;;11.29;100.00;96916.72;5016136;28;20048;-76
2023/10/19 07:17:53;;;;;;;0.40;0.40;;;;;;;11.28;100.00;96908.94;5029031;28;20041;-76
2023/10/19 07:20:27;;;;;;;0.40;0.40;;;;;;;11.28;100.00;96911.63;5030055;28;20018;-76
2023/10/19 07:22:57;;;;;;;0.40;0.40;;;;;;;11.29;100.00;96910.53;5014711;28;20033;-77
2023/10/19 07:25:25;;;;;;;0.38;0.38;;;;;;;11.31;100.00;96913.75;5014000;28;20476;-75
2023/10/19 07:27:52;;;;;;;0.35;0.35;;;;;;;11.30;100.00;96906.75;5025556;28;20072;-75
2023/10/19 07:30:25;;;;;;;1.50;1.42;;;;;;;11.34;100.00;96905.94;4999027;28;20141;-76
2023/10/19 07:32:54;;;;;;;0.40;0.40;;;;;;;11.37;100.00;96909.97;5001887;28;20037;-76
2023/10/19 07:35:22;;;;;;;0.30;0.30;;;;;;;11.40;100.00;96906.72;5012903;28;20077;-76
2023/10/19 07:37:50;;;;;;;0.40;0.40;;;;;;;11.40;100.00;96899.44;5023817;28;20029;-76
2023/10/19 07:40:17;;;;;;;0.40;0.40;;;;;;;11.45;100.00;96906.69;4999572;28;20082;-76
2023/10/19 07:42:45;;;;;;;0.40;0.40;;;;;;;11.45;100.00;96902.13;5028887;28;20037;-77
2023/10/19 07:45:13;;;;;;;0.40;0.40;;;;;;;11.48;100.00;96908.03;4998138;28;20029;-76
2023/10/19 07:47:41;;;;;;;0.40;0.40;;;;;;;11.50;100.00;96901.31;5014542;28;20033;-76
2023/10/19 07:50:17;;;;;;;0.40;0.40;;;;;;;11.53;100.00;96902.63;5010887;28;20463;-75
2023/10/19 07:52:44;;;;;;;0.40;0.40;;;;;;;11.54;100.00;96904.25;5000361;28;20079;-75
2023/10/19 07:55:12;;;;;;;0.40;0.40;;;;;;;11.55;100.00;96903.97;5015379;28;20041;-76
2023/10/19 07:57:40;;;;;;;0.45;0.45;;;;;;;11.60;100.00;96905.84;5015568;28;20056;-75
2023/10/19 08:00:08;;;;;;;0.35;0.35;;;;;;;11.64;100.00;96901.50;5000764;28;20427;-75
2023/10/19 08:02:41;;;;;;;0.45;0.45;;;;;;;11.69;100.00;96904.16;5015899;28;20041;-75
2023/10/19 08:05:08;;;;;;;0.30;0.30;;;;;;;11.75;100.00;96904.94;5010511;28;20052;-76
2023/10/19 08:07:37;;;;;;;0.40;0.40;;;;;;;11.81;100.00;96896.56;5015058;28;20495;-77
2023/10/19 08:10:05;;;;;;;0.40;0.40;;;;;;;11.87;100.00;96889.31;5031555;28;20425;-76
2023/10/19 08:12:32;;;;;;;0.30;0.30;;;;;;;11.95;100.00;96895.97;5031536;28;20033;-76
2023/10/19 08:14:59;;;;;;;0.40;0.40;;;;;;;11.99;100.00;96897.84;5015493;28;20120;-76
2023/10/19 08:17:28;;;;;;;0.45;0.45;;;;;;;12.01;100.00;96898.38;5024135;28;20025;-77
2023/10/19 08:19:53;;;;;;;0.35;0.35;;;;;;;12.00;100.00;96895.94;5029210;28;20037;-76
2023/10/19 08:22:19;;;;;;;0.40;0.40;;;;;;;11.96;100.00;96893.03;5028850;28;20033;-76
2023/10/19 08:24:45;;;;;;;0.40;0.40;;;;;;;11.96;100.00;96898.41;5032851;28;20029;-75
2023/10/19 08:27:12;;;;;;;0.40;0.40;;;;;;;11.97;100.00;96893.81;5015514;28;20037;-76
2023/10/19 08:29:38;;;;;;;0.40;0.40;;;;;;;11.97;100.00;96883.84;5032517;28;20108;-76
2023/10/19 08:32:04;;;;;;;0.38;0.38;;;;;;;11.98;100.00;96885.44;5015796;28;20168;-75
2023/10/19 08:34:35;;;;;;;0.40;0.40;;;;;;;12.06;100.00;96881.34;5032552;28;20029;-76
2023/10/19 08:37:02;;;;;;;0.60;0.60;;;;;;;12.08;100.00;96881.91;5016745;28;20037;-76
2023/10/19 08:39:35;;;;;;;0.30;0.30;;;;;;;12.15;100.00;96879.69;4999670;28;20175;-76
2023/10/19 08:42:04;;;;;;;0.50;0.50;;;;;;;12.21;100.00;96888.53;5017597;28;20065;-76
2023/10/19 08:44:30;;;;;;;0.40;0.40;;;;;;;12.24;100.00;96872.59;4984360;28;20041;-76
2023/10/19 08:46:59;;;;;;;0.40;0.40;;;;;;;12.30;100.00;96882.28;5032587;28;20030;-76
2023/10/19 08:49:26;;;;;;;0.40;0.40;;;;;;;12.37;100.00;96879.25;5016583;28;20063;-76
2023/10/19 08:51:53;;;;;;;0.40;0.40;;;;;;;12.38;100.00;96888.13;5016953;28;20064;-76
2023/10/19 08:54:20;;;;;;;0.30;0.30;;;;;;;12.39;100.00;96887.06;5000723;28;20155;-76
2023/10/19 08:56:47;;;;;;;0.40;0.40;;;;;;;12.43;100.00;96880.78;5032704;28;20057;-76
2023/10/19 08:59:16;;;;;;;0.40;0.40;;;;;;;12.47;100.00;96884.56;5033622;28;20494;-76
2023/10/19 09:01:46;;;;;;;0.40;0.40;;;;;;;12.51;100.00;96885.56;5033777;28;20030;-76
2023/10/19 09:04:13;;;;;;;0.40;0.40;;;;;;;12.54;100.00;96881.50;5016127;28;20026;-76
2023/10/19 09:06:41;;;;;;;0.40;0.40;;;;;;;12.53;100.00;96880.72;5030317;28;20065;-77
2023/10/19 09:09:16;;;;;;;0.30;0.30;;;;;;;12.55;100.00;96880.44;5029785;28;20091;-76
2023/10/19 09:11:48;;;;;;;0.47;0.47;;;;;;;12.53;100.00;96880.72;5045636;28;20041;-77
2023/10/19 09:14:17;;;;;;;0.40;0.40;;;;;;;12.51;100.00;96882.09;4997950;28;20060;-77
2023/10/19 09:16:57;;;;;;;0.40;0.40;;;;;;;12.49;100.00;96886.94;5031728;28;20059;-76
2023/10/19 09:19:40;;;;;;;0.40;0.40;;;;;;;12.48;100.00;96882.66;5031480;28;20030;-78
2023/10/19 09:22:18;;;;;;;0.40;0.40;;;;;;;12.51;100.00;96879.38;5024715;28;20033;-76
2023/10/19 09:24:49;;;;;;;0.43;0.43;;;;;;;12.59;100.00;96884.16;5031985;28;20087;-78
2023/10/19 09:27:19;;;;;;;0.40;0.40;;;;;;;12.75;100.00;96882.94;4998797;28;20065;-75
2023/10/19 09:29:46;;;;;;;0.47;0.47;;;;;;;12.93;100.00;96883.31;4999646;28;20467;-75
2023/10/19 09:32:14;;;;;;;0.40;0.40;;;;;;;13.10;100.00;96883.66;5014935;28;20129;-76
2023/10/19 09:34:43;;;;;;;0.38;0.38;;;;;;;13.14;100.00;96887.38;5014817;28;20156;-76
2023/10/19 09:37:11;;;;;;;0.40;0.40;;;;;;;13.23;100.00;96882.19;5013551;28;20075;-76
2023/10/19 09:39:37;;;;;;;0.40;0.40;;;;;;;13.40;100.00;96881.72;5012394;28;20025;-77
2023/10/19 09:42:06;;;;;;;0.40;0.40;;;;;;;13.50;100.00;96880.81;4997845;28;20045;-76
2023/10/19 09:44:46;;;;;;;0.40;0.40;;;;;;;13.58;100.00;96883.66;4997375;28;20037;-76
2023/10/19 09:47:14;;;;;;;0.40;0.40;;;;;;;13.75;100.00;96882.34;4997803;28;20029;-76
2023/10/19 09:49:42;;;;;;;0.40;0.40;;;;;;;13.99;100.00;96887.66;5015387;28;20056;-75
2023/10/19 09:52:09;;;;;;;0.50;0.50;;;;;;;14.21;100.00;96874.38;5016762;28;20410;-76
2023/10/19 09:54:47;;;;;;;0.40;0.40;;;;;;;14.70;100.00;96883.06;5000646;28;20029;-76
2023/10/19 09:57:18;;;;;;;0.40;0.40;;;;;;;15.26;100.00;96884.72;5031472;28;20562;-76
2023/10/19 09:59:46;;;;;;;0.43;0.43;;;;;;;15.87;100.00;96879.94;5000642;28;20498;-77
2023/10/19 10:02:13;;;;;;;0.50;0.50;;;;;;;15.87;100.00;96892.69;4988480;28;20037;-77
2023/10/19 10:04:40;;;;;;;0.45;0.45;;;;;;;15.94;100.00;96888.47;5049974;28;20029;-76
2023/10/19 10:07:07;;;;;;;0.40;0.40;;;;;;;15.75;100.00;96893.25;5034474;28;20713;-76
2023/10/19 10:09:39;;;;;;;0.40;0.40;;;;;;;15.38;100.00;96876.09;5034170;28;20399;-75
2023/10/19 10:12:25;;;;;;;0.30;0.30;;;;;;;15.26;100.00;96887.41;5001481;28;20034;-76
2023/10/19 10:15:02;;;;;;;0.40;0.40;;;;;;;15.17;100.00;96883.81;5019063;28;20026;-76
2023/10/19 10:17:28;;;;;;;0.40;0.40;;;;;;;14.94;100.00;96886.41;5017972;28;20025;-76
2023/10/19 10:19:56;;;;;;;0.50;0.50;;;;;;;14.71;100.00;96893.59;5016868;28;20041;-76
2023/10/19 10:22:22;;;;;;;0.40;0.40;;;;;;;14.72;100.00;96886.28;5000628;28;20084;-75
2023/10/19 10:24:54;;;;;;;0.40;0.40;;;;;;;14.87;100.00;96882.47;5034189;28;20041;-76
2023/10/19 10:27:20;;;;;;;0.43;0.43;;;;;;;14.81;100.00;96880.97;5034161;28;20473;-76
2023/10/19 10:29:58;;;;;;;0.40;0.40;;;;;;;14.85;100.00;96882.78;5017791;28;20040;-76
2023/10/19 10:32:43;;;;;;;0.40;0.40;;;;;;;15.10;100.00;96884.19;5018761;28;20498;-76
2023/10/19 10:35:09;;;;;;;0.50;0.50;;;;;;;15.45;100.00;96879.19;5036313;28;20025;-76
2023/10/19 10:37:39;;;;;;;0.40;0.40;;;;;;;15.93;100.00;96889.59;5035082;28;20029;-75
2023/10/19 10:40:06;;;;;;;0.43;0.43;;;;;;;16.33;100.00;96884.31;5035071;28;20040;-75
2023/10/19 10:42:34;;;;;;;0.40;0.40;;;;;;;16.56;100.00;96884.31;5002138;28;20391;-75
2023/10/19 10:44:59;;;;;;;0.40;0.40;;;;;;;16.57;100.00;96881.31;5018462;28;20056;-76
2023/10/19 10:47:25;;;;;;;0.50;0.50;;;;;;;16.49;100.00;96884.75;5035086;28;20456;-76
2023/10/19 10:49:51;;;;;;;0.50;0.50;;;;;;;16.34;100.00;96877.00;5034270;28;20123;-76
2023/10/19 10:52:34;;;;;;;0.50;0.50;;;;;;;16.11;100.00;96885.09;5034855;28;20484;-76
2023/10/19 10:55:15;;;;;;;;;;;;;;;15.91;100.00;96886.38;5035067;28;20094;-75
2023/10/19 10:57:42;;;;;;;0.50;0.50;;;;;;;15.66;100.00;96889.59;5035779;28;19909;-75
2023/10/19 11:00:15;;;;;;;0.40;0.40;;;;;;;15.61;100.00;96882.38;5034828;28;20064;-76
2023/10/19 11:02:49;;;;;;;0.50;0.50;;;;;;;15.82;100.00;96883.59;5017960;28;20045;-76
2023/10/19 11:05:21;;;;;;;0.40;0.40;;;;;;;15.93;100.00;96878.75;5019127;28;20412;-76
2023/10/19 11:08:21;;;;;;;0.40;0.40;;;;;;;16.34;100.00;96885.13;5002380;28;20037;-76
2023/10/19 11:10:47;;;;;;;0.50;0.50;;;;;;;16.92;100.00;96879.59;5018996;28;20018;-76
2023/10/19 11:13:23;;;;;;;0.40;0.40;;;;;;;17.30;100.00;96875.59;5034334;28;20108;-76
2023/10/19 11:15:52;;;;;;;0.40;0.40;;;;;;;17.02;100.00;96873.13;5001697;28;20041;-76
2023/10/19 11:18:39;;;;;;;0.40;0.40;;;;;;;16.93;100.00;96877.69;5018169;28;20037;-76
2023/10/19 11:21:12;;;;;;;0.50;0.50;;;;;;;17.08;100.00;96880.00;5034155;28;20035;-76
2023/10/19 11:23:43;;;;;;;0.40;0.40;;;;;;;16.84;100.00;96876.84;5001374;28;20041;-75
2023/10/19 11:26:10;;;;;;;0.40;0.40;;;;;;;16.55;100.00;96883.50;5017516;28;20128;-76
2023/10/19 11:28:54;;;;;;;0.40;0.40;;;;;;;16.47;100.00;96876.91;5017430;28;20037;-75
2023/10/19 11:31:23;;;;;;;0.40;0.40;;;;;;;16.65;100.00;96883.25;5019653;28;20029;-76
2023/10/19 11:33:51;;;;;;;0.40;0.40;;;;;;;17.01;100.00;96874.19;5033965;28;20040;-76
2023/10/19 11:36:18;;;;;;;0.50;0.50;;;;;;;17.62;100.00;96877.13;5000932;28;20364;-75
2023/10/19 11:38:45;;;;;;;0.57;0.57;;;;;;;18.31;100.00;96865.56;5017218;28;20064;-75
2023/10/19 11:41:14;;;;;;;0.50;0.50;;;;;;;18.87;100.00;96869.16;5017398;28;20037;-75
2023/10/19 11:43:42;;;;;;;0.40;0.40;;;;;;;18.44;100.00;96867.28;5017355;28;20073;-75
2023/10/19 11:46:27;;;;;;;0.40;0.40;;;;;;;18.43;100.00;96873.03;5033238;28;20087;-76
2023/10/19 11:48:52;;;;;;;0.30;0.30;;;;;;;18.43;100.00;96873.84;5017879;28;20034;-75
2023/10/19 11:51:18;;;;;;;0.30;0.30;;;;;;;18.50;100.00;96875.25;5033619;28;20480;-76
2023/10/19 11:53:44;;;;;;;0.40;0.40;;;;;;;18.74;100.00;96872.84;5033813;28;20467;-76
2023/10/19 11:56:12;;;;;;;0.40;0.40;;;;;;;18.70;100.00;96877.31;5033566;28;20033;-76
2023/10/19 11:58:41;;;;;;;0.38;0.38;;;;;;;18.53;100.00;96863.75;5034128;28;20112;-76